Time;durP1;ratioP1;P1;durP2;ratioP2;P2;SDS_P1;SDS_P2;PMS_P1;PMS_P2;Temp;Humidity;BMP_temperature;BMP_pressure;BME280_temperature;BME280_humidity;BME280_pressure;Samples;Min_cycle;Max_cycle;Signal;HPM_P1;HPM_P2
2022/07/15 00:00:37;;;;;;;10.02;2.05;;;12.40;99.90;;;;;;5133241;27;20039;-80
2022/07/15 00:03:03;;;;;;;6.93;2.08;;;12.40;99.90;;;;;;5137221;27;20397;-80
2022/07/15 00:05:29;;;;;;;13.07;1.60;;;12.40;99.90;;;;;;5133763;27;20039;-80
2022/07/15 00:07:55;;;;;;;8.38;1.92;;;12.40;99.90;;;;;;5135734;27;20035;-80
2022/07/15 00:10:23;;;;;;;5.95;1.50;;;12.50;99.90;;;;;;5134398;27;20485;-80
2022/07/15 00:12:55;;;;;;;11.32;2.55;;;12.50;99.90;;;;;;5136075;27;20108;-80
2022/07/15 00:15:23;;;;;;;19.52;2.65;;;12.50;99.90;;;;;;5135701;27;20449;-80
2022/07/15 00:17:50;;;;;;;11.98;1.67;;;12.60;99.90;;;;;;5136753;27;20054;-80
2022/07/15 00:20:16;;;;;;;6.18;1.77;;;12.70;99.90;;;;;;5133038;27;20439;-80
2022/07/15 00:22:43;;;;;;;8.68;1.98;;;12.70;99.90;;;;;;5115994;28;20093;-80
2022/07/15 00:25:10;;;;;;;5.05;1.45;;;12.70;99.90;;;;;;5126396;27;20051;-79
2022/07/15 00:27:36;;;;;;;10.93;1.80;;;12.70;99.90;;;;;;5133372;27;20087;-80
2022/07/15 00:30:04;;;;;;;10.77;1.92;;;12.70;99.90;;;;;;5134384;27;20389;-79
2022/07/15 00:32:29;;;;;;;9.57;1.85;;;12.70;99.90;;;;;;5136119;27;20039;-79
2022/07/15 00:34:55;;;;;;;10.18;2.17;;;12.70;99.90;;;;;;5134121;27;20456;-80
2022/07/15 00:37:21;;;;;;;6.32;1.60;;;12.70;99.90;;;;;;5134984;27;20047;-80
2022/07/15 00:39:47;;;;;;;14.45;2.35;;;12.70;99.90;;;;;;5133673;27;20367;-80
2022/07/15 00:42:43;;;;;;;9.93;1.95;;;12.80;99.90;;;;;;5135531;27;20077;-80
2022/07/15 00:45:00;;;;;;;11.73;2.40;;;12.80;99.90;;;;;;5134811;27;20039;-80
2022/07/15 00:47:26;;;;;;;9.98;2.10;;;12.80;99.90;;;;;;5136166;27;20043;-80
2022/07/15 00:49:52;;;;;;;18.40;3.75;;;12.90;99.90;;;;;;5129329;27;20036;-80
2022/07/15 00:52:19;;;;;;;10.98;1.90;;;12.90;99.90;;;;;;5115216;28;20051;-80
2022/07/15 00:54:49;;;;;;;10.77;2.22;;;12.90;99.90;;;;;;5120300;27;20054;-80
2022/07/15 00:57:17;;;;;;;8.95;1.80;;;12.90;99.90;;;;;;5134557;27;20500;-79
2022/07/15 00:59:47;;;;;;;12.10;2.00;;;12.90;99.90;;;;;;5134712;27;20070;-80
2022/07/15 01:02:14;;;;;;;8.02;2.00;;;12.90;99.90;;;;;;5134951;27;20496;-80
2022/07/15 01:04:40;;;;;;;10.00;2.03;;;12.90;99.90;;;;;;5134536;27;20046;-80
2022/07/15 01:07:05;;;;;;;12.38;1.85;;;12.90;99.90;;;;;;5134683;27;20039;-80
2022/07/15 01:09:31;;;;;;;8.48;1.92;;;12.90;99.90;;;;;;5132485;27;20046;-80
2022/07/15 01:11:58;;;;;;;8.57;2.15;;;12.90;99.90;;;;;;5135579;27;20086;-80
2022/07/15 01:14:24;;;;;;;9.13;2.05;;;12.90;99.90;;;;;;5147715;27;20050;-80
2022/07/15 01:16:50;;;;;;;9.43;1.85;;;12.90;99.90;;;;;;5136635;27;20458;-80
2022/07/15 01:19:16;;;;;;;11.23;2.17;;;12.90;99.90;;;;;;5155434;27;20215;-80
2022/07/15 01:21:44;;;;;;;13.10;2.22;;;12.90;99.90;;;;;;5142297;27;20050;-80
2022/07/15 01:24:10;;;;;;;7.20;1.77;;;12.90;99.90;;;;;;5125378;27;20112;-80
2022/07/15 01:26:35;;;;;;;14.68;2.53;;;12.90;99.90;;;;;;5156139;27;20031;-80
2022/07/15 01:29:01;;;;;;;12.15;1.88;;;12.90;99.90;;;;;;5154806;27;20473;-80
2022/07/15 01:31:27;;;;;;;9.35;1.88;;;12.90;99.90;;;;;;5136598;27;20043;-80
2022/07/15 01:33:54;;;;;;;7.82;2.03;;;12.90;99.90;;;;;;5138533;27;20116;-80
2022/07/15 01:36:20;;;;;;;9.55;1.85;;;12.80;99.90;;;;;;5116788;27;20069;-80
2022/07/15 01:38:45;;;;;;;10.35;1.95;;;12.80;99.90;;;;;;5151017;27;20077;-80
2022/07/15 01:41:12;;;;;;;7.25;1.30;;;12.80;99.90;;;;;;5137310;27;20070;-80
2022/07/15 01:43:38;;;;;;;9.48;2.30;;;12.80;99.90;;;;;;5136189;27;20049;-80
2022/07/15 01:46:03;;;;;;;8.55;1.92;;;12.70;99.90;;;;;;5155122;27;20046;-80
2022/07/15 01:51:13;;;;;;;8.65;1.85;;;12.70;99.90;;;;;;5136891;27;20057;-80
2022/07/15 01:53:39;;;;;;;8.77;1.85;;;12.70;99.90;;;;;;5154522;27;20489;-79
2022/07/15 01:56:05;;;;;;;12.50;1.95;;;12.70;99.90;;;;;;5135562;27;20047;-80
2022/07/15 01:58:31;;;;;;;10.18;2.47;;;12.70;99.90;;;;;;5154826;27;20476;-80
2022/07/15 02:00:57;;;;;;;7.20;1.95;;;12.70;99.90;;;;;;5154561;27;20038;-80
2022/07/15 02:03:22;;;;;;;9.05;2.08;;;12.70;99.90;;;;;;5137329;27;20045;-80
2022/07/15 02:05:48;;;;;;;8.93;1.92;;;12.70;99.90;;;;;;5153785;27;20031;-80
2022/07/15 02:08:14;;;;;;;8.82;1.52;;;12.60;99.90;;;;;;5137474;27;20471;-80
2022/07/15 02:10:40;;;;;;;10.25;2.55;;;12.60;99.90;;;;;;5154310;27;20089;-80
2022/07/15 02:13:11;;;;;;;8.35;1.63;;;12.60;99.90;;;;;;5135953;27;20143;-80
2022/07/15 02:15:38;;;;;;;9.13;1.60;;;12.60;99.90;;;;;;5152480;27;20392;-80
2022/07/15 02:18:05;;;;;;;8.15;1.17;;;12.50;99.90;;;;;;5134544;27;20039;-80
2022/07/15 02:20:32;;;;;;;8.50;1.60;;;12.50;99.90;;;;;;5117250;27;20074;-80
2022/07/15 02:22:58;;;;;;;9.70;2.60;;;12.40;99.90;;;;;;5137099;27;20126;-80
2022/07/15 02:25:28;;;;;;;7.25;1.77;;;12.40;99.90;;;;;;5135850;27;20050;-79
2022/07/15 02:27:56;;;;;;;10.70;2.10;;;12.30;99.90;;;;;;5154973;27;20082;-80
2022/07/15 02:30:27;;;;;;;8.02;2.63;;;12.30;99.90;;;;;;5136349;27;20499;-80
2022/07/15 02:32:53;;;;;;;6.43;1.38;;;12.20;99.90;;;;;;5155971;27;20085;-79
2022/07/15 02:35:19;;;;;;;14.60;2.67;;;12.20;99.90;;;;;;5134856;27;20082;-79
2022/07/15 02:37:46;;;;;;;5.55;1.38;;;12.20;99.90;;;;;;5136235;27;20054;-80
2022/07/15 02:40:12;;;;;;;7.18;1.85;;;12.10;99.90;;;;;;5134252;27;20050;-79
2022/07/15 02:42:38;;;;;;;9.98;2.33;;;12.00;99.90;;;;;;5136331;27;20481;-79
2022/07/15 02:45:05;;;;;;;8.57;1.65;;;12.00;99.90;;;;;;5153968;27;20038;-80
2022/07/15 02:47:31;;;;;;;7.38;1.70;;;11.90;99.90;;;;;;5154149;27;20042;-79
2022/07/15 02:49:57;;;;;;;11.52;1.60;;;11.90;99.90;;;;;;5154028;27;20038;-79
2022/07/15 02:52:23;;;;;;;9.23;1.63;;;11.90;99.90;;;;;;5154974;27;20107;-79
2022/07/15 02:54:49;;;;;;;12.40;1.92;;;11.80;99.90;;;;;;5133605;27;20047;-79
2022/07/15 02:57:15;;;;;;;12.52;2.17;;;11.80;99.90;;;;;;5141346;27;20038;-79
2022/07/15 02:59:41;;;;;;;7.18;2.22;;;11.70;99.90;;;;;;5156943;27;20043;-79
2022/07/15 03:02:06;;;;;;;5.25;1.17;;;11.70;99.90;;;;;;5158107;27;20050;-79
2022/07/15 03:04:32;;;;;;;6.25;1.40;;;11.70;99.90;;;;;;5157593;27;20031;-80
2022/07/15 03:06:58;;;;;;;10.27;1.75;;;11.70;99.90;;;;;;5158484;27;20055;-79
2022/07/15 03:09:23;;;;;;;11.55;1.40;;;11.60;99.90;;;;;;5138335;27;20115;-80
2022/07/15 03:11:49;;;;;;;7.45;1.50;;;11.60;99.90;;;;;;5142800;27;20100;-79
2022/07/15 03:14:15;;;;;;;4.00;1.63;;;11.50;99.90;;;;;;5147463;27;20046;-80
2022/07/15 03:16:41;;;;;;;6.88;1.35;;;11.50;99.90;;;;;;5138984;27;20050;-80
2022/07/15 03:19:08;;;;;;;12.73;1.95;;;11.50;99.90;;;;;;5157278;27;20049;-79
2022/07/15 03:21:34;;;;;;;9.05;1.80;;;11.40;99.90;;;;;;5139943;27;20046;-80
2022/07/15 03:23:59;;;;;;;5.55;1.40;;;11.40;99.90;;;;;;5136921;27;20054;-79
2022/07/15 03:26:25;;;;;;;9.73;2.10;;;11.40;99.90;;;;;;5158261;27;20046;-80
2022/07/15 03:28:51;;;;;;;7.18;1.92;;;11.40;99.90;;;;;;5157186;27;20043;-80
2022/07/15 03:31:17;;;;;;;7.45;1.80;;;11.40;99.90;;;;;;5157676;27;20042;-80
2022/07/15 03:33:43;;;;;;;7.47;1.60;;;11.40;99.90;;;;;;5156945;27;20039;-80
2022/07/15 03:36:08;;;;;;;8.00;1.65;;;11.40;99.90;;;;;;5158384;27;20126;-80
2022/07/15 03:38:34;;;;;;;10.90;1.60;;;11.40;99.90;;;;;;5156205;27;20042;-80
2022/07/15 03:41:00;;;;;;;5.88;1.55;;;11.40;99.90;;;;;;5157116;27;20110;-80
2022/07/15 03:43:29;;;;;;;5.28;1.48;;;11.50;99.90;;;;;;5155905;27;20136;-80
2022/07/15 03:45:55;;;;;;;9.52;1.70;;;11.50;99.90;;;;;;5157896;27;20050;-80
2022/07/15 03:48:21;;;;;;;10.48;1.45;;;11.50;99.90;;;;;;5138404;27;20055;-80
2022/07/15 03:50:47;;;;;;;8.68;1.48;;;11.50;99.90;;;;;;5157422;27;20042;-79
2022/07/15 03:53:13;;;;;;;9.48;1.60;;;11.50;99.90;;;;;;5156944;27;20050;-80
2022/07/15 03:55:39;;;;;;;9.15;1.67;;;11.50;99.90;;;;;;5157903;27;20042;-80
2022/07/15 03:58:05;;;;;;;8.48;1.38;;;11.60;99.90;;;;;;5152799;27;20039;-80
2022/07/15 04:00:31;;;;;;;7.85;1.60;;;11.60;99.90;;;;;;5137092;27;20042;-80
2022/07/15 04:02:57;;;;;;;5.82;1.20;;;11.70;99.90;;;;;;5122355;27;20034;-79
2022/07/15 04:05:23;;;;;;;7.50;1.35;;;11.70;99.90;;;;;;5137316;27;20533;-80
2022/07/15 04:07:48;;;;;;;5.00;1.08;;;11.70;99.90;;;;;;5155622;27;20031;-80
2022/07/15 04:10:15;;;;;;;7.63;1.05;;;11.70;99.90;;;;;;5118644;27;20043;-80
2022/07/15 04:12:41;;;;;;;9.00;1.27;;;11.70;99.90;;;;;;5122221;27;20095;-80
2022/07/15 04:15:07;;;;;;;9.00;1.52;;;11.80;99.90;;;;;;5157344;27;20115;-80
2022/07/15 04:17:34;;;;;;;6.03;1.30;;;11.80;99.90;;;;;;5137361;27;20050;-80
2022/07/15 04:20:00;;;;;;;5.80;1.00;;;11.80;99.90;;;;;;5137745;27;20477;-80
2022/07/15 04:22:25;;;;;;;4.75;1.48;;;11.90;99.90;;;;;;5155826;27;20046;-80
2022/07/15 04:24:51;;;;;;;6.78;2.03;;;11.90;99.90;;;;;;5137323;27;20044;-80
2022/07/15 04:27:18;;;;;;;5.55;1.00;;;12.00;99.90;;;;;;5135300;27;20046;-80
2022/07/15 04:29:44;;;;;;;5.75;1.17;;;12.00;99.90;;;;;;5157090;27;20039;-80
2022/07/15 04:32:09;;;;;;;4.97;2.35;;;12.10;99.90;;;;;;5157097;27;20362;-80
2022/07/15 04:34:35;;;;;;;2.97;1.10;;;12.10;99.90;;;;;;5138405;27;20478;-80
2022/07/15 04:37:02;;;;;;;3.63;1.33;;;12.10;99.90;;;;;;5122128;27;20050;-80
2022/07/15 04:39:28;;;;;;;9.50;1.38;;;12.10;99.90;;;;;;5138490;27;20046;-80
2022/07/15 04:41:53;;;;;;;4.25;1.25;;;12.20;99.90;;;;;;5154889;27;20503;-80
2022/07/15 04:44:19;;;;;;;6.53;1.30;;;12.20;99.90;;;;;;5138175;27;20038;-80
2022/07/15 04:46:45;;;;;;;7.03;1.25;;;12.20;99.90;;;;;;5121944;27;20058;-80
2022/07/15 04:51:55;;;;;;;1.97;1.00;;;12.30;99.90;;;;;;5153082;27;20038;-80
2022/07/15 04:54:21;;;;;;;8.57;1.30;;;12.30;99.90;;;;;;5137501;27;20300;-80
2022/07/15 04:56:49;;;;;;;4.97;1.13;;;12.40;99.90;;;;;;5155194;27;20070;-80
2022/07/15 04:59:14;;;;;;;13.68;1.30;;;12.40;99.90;;;;;;5156506;27;20050;-80
2022/07/15 05:01:40;;;;;;;4.07;1.00;;;12.40;99.90;;;;;;5135932;27;20049;-80
2022/07/15 05:04:06;;;;;;;4.68;1.10;;;12.40;99.90;;;;;;5156482;27;20079;-80
2022/07/15 05:06:31;;;;;;;2.25;0.88;;;12.50;99.90;;;;;;5152353;27;20031;-80
2022/07/15 05:08:57;;;;;;;5.80;1.27;;;12.70;99.90;;;;;;5154428;27;20485;-80
2022/07/15 05:11:23;;;;;;;4.15;1.00;;;12.80;99.90;;;;;;5150144;27;20035;-85
2022/07/15 05:13:49;;;;;;;4.75;0.98;;;13.00;99.90;;;;;;5135792;27;20156;-85
2022/07/15 05:16:14;;;;;;;4.53;0.93;;;13.20;99.90;;;;;;5134942;27;20092;-85
2022/07/15 05:18:40;;;;;;;3.63;1.15;;;13.40;99.90;;;;;;5125821;27;20078;-84
2022/07/15 05:21:06;;;;;;;2.42;0.63;;;13.60;99.90;;;;;;5118931;27;20122;-85
2022/07/15 05:23:32;;;;;;;11.85;1.20;;;13.70;99.90;;;;;;5128313;27;20103;-85
2022/07/15 05:25:57;;;;;;;4.05;0.95;;;13.80;99.90;;;;;;5117417;27;20451;-85
2022/07/15 05:28:23;;;;;;;3.88;0.80;;;13.90;99.90;;;;;;5135111;27;20047;-85
2022/07/15 05:30:49;;;;;;;3.88;0.95;;;13.90;99.90;;;;;;5135311;27;20095;-85
2022/07/15 05:33:16;;;;;;;3.40;0.80;;;14.00;99.90;;;;;;5135411;27;20035;-85
2022/07/15 05:35:44;;;;;;;2.08;1.00;;;14.00;99.90;;;;;;5116759;27;20043;-85
2022/07/15 05:38:11;;;;;;;3.28;0.60;;;14.00;99.90;;;;;;5116011;27;20043;-85
2022/07/15 05:40:37;;;;;;;2.28;0.50;;;13.90;99.90;;;;;;5130057;27;20043;-85
2022/07/15 05:43:03;;;;;;;6.13;1.20;;;13.90;99.90;;;;;;5155008;27;20095;-85
2022/07/15 05:45:28;;;;;;;2.88;0.70;;;14.00;99.90;;;;;;5137373;27;20043;-85
2022/07/15 05:47:54;;;;;;;3.28;0.60;;;14.00;99.90;;;;;;5134601;27;20042;-85
2022/07/15 05:50:21;;;;;;;4.40;1.38;;;14.00;99.90;;;;;;5115998;27;20382;-86
2022/07/15 05:52:46;;;;;;;6.22;1.35;;;14.00;99.90;;;;;;5135032;27;20108;-86
2022/07/15 05:55:12;;;;;;;3.00;0.68;;;14.00;99.90;;;;;;5134835;27;20043;-85
2022/07/15 05:57:38;;;;;;;2.35;0.60;;;14.10;99.90;;;;;;5133651;27;20050;-86
2022/07/15 06:00:06;;;;;;;5.05;0.70;;;14.10;99.90;;;;;;5116630;27;20043;-86
2022/07/15 06:02:31;;;;;;;4.25;0.75;;;14.10;99.90;;;;;;5116250;27;20103;-86
2022/07/15 06:04:57;;;;;;;7.63;0.95;;;14.20;99.90;;;;;;5117309;27;20149;-86
2022/07/15 06:07:26;;;;;;;4.68;0.88;;;14.20;99.90;;;;;;5155415;27;20054;-85
2022/07/15 06:09:52;;;;;;;2.45;0.50;;;14.20;99.90;;;;;;5136933;27;20039;-86
2022/07/15 06:12:18;;;;;;;3.00;0.60;;;14.30;99.90;;;;;;5154173;27;20084;-86
2022/07/15 06:14:43;;;;;;;4.40;0.73;;;14.30;99.90;;;;;;5154956;27;20050;-85
2022/07/15 06:17:09;;;;;;;3.50;0.80;;;14.40;99.90;;;;;;5141537;27;20053;-85
2022/07/15 06:19:35;;;;;;;2.53;0.40;;;14.40;99.90;;;;;;5115706;28;20435;-85
2022/07/15 06:22:01;;;;;;;2.47;0.43;;;14.60;99.90;;;;;;5134883;27;20454;-85
2022/07/15 06:24:27;;;;;;;2.70;0.70;;;14.70;99.90;;;;;;5134698;28;20047;-86
2022/07/15 06:26:53;;;;;;;3.75;0.75;;;14.90;99.90;;;;;;5133863;27;20058;-86
2022/07/15 06:29:19;;;;;;;1.77;0.50;;;15.00;99.90;;;;;;5135420;27;20066;-85
2022/07/15 06:31:45;;;;;;;3.08;0.90;;;15.20;99.90;;;;;;5138857;27;20046;-86
2022/07/15 06:34:16;;;;;;;2.75;0.50;;;15.30;99.90;;;;;;5119673;27;20389;-85
2022/07/15 06:36:42;;;;;;;4.13;0.60;;;15.40;99.90;;;;;;5138911;27;20043;-85
2022/07/15 06:39:07;;;;;;;3.97;0.50;;;15.50;99.90;;;;;;5120101;27;20462;-85
2022/07/15 06:41:34;;;;;;;4.00;0.40;;;15.60;99.90;;;;;;5119501;27;20060;-85
2022/07/15 06:44:01;;;;;;;3.30;0.32;;;15.70;99.90;;;;;;5138920;27;20090;-85
2022/07/15 06:46:27;;;;;;;1.42;0.35;;;15.90;99.90;;;;;;5137651;27;20047;-86
2022/07/15 06:48:53;;;;;;;6.50;1.90;;;15.90;99.90;;;;;;5103155;27;20047;-85
2022/07/15 06:51:19;;;;;;;5.75;0.50;;;16.00;99.90;;;;;;5138565;27;20039;-85
2022/07/15 06:53:44;;;;;;;3.90;0.73;;;16.20;99.90;;;;;;5119547;27;20039;-84
2022/07/15 06:56:11;;;;;;;3.95;0.55;;;16.30;99.90;;;;;;5119913;27;20390;-85
2022/07/15 06:58:38;;;;;;;2.67;0.90;;;16.40;99.90;;;;;;5119861;27;20125;-85
2022/07/15 07:01:04;;;;;;;2.00;0.50;;;16.50;99.90;;;;;;5137295;27;20107;-86
2022/07/15 07:03:30;;;;;;;4.18;1.02;;;16.50;99.90;;;;;;5119867;27;20035;-87
2022/07/15 07:05:57;;;;;;;3.85;0.47;;;16.60;99.90;;;;;;5119598;27;20050;-85
2022/07/15 07:08:23;;;;;;;2.70;0.50;;;16.60;99.90;;;;;;5102132;27;20076;-85
2022/07/15 07:10:49;;;;;;;3.45;0.68;;;16.50;99.90;;;;;;5137868;27;20039;-85
2022/07/15 07:13:15;;;;;;;2.47;0.68;;;16.50;99.90;;;;;;5119261;27;20066;-85
2022/07/15 07:15:41;;;;;;;3.47;0.35;;;16.60;99.90;;;;;;5119027;27;20058;-87
2022/07/15 07:18:07;;;;;;;2.95;0.30;;;16.80;99.90;;;;;;5119447;27;20082;-84
2022/07/15 07:20:32;;;;;;;1.88;0.45;;;16.80;99.90;;;;;;5119672;27;20043;-85
2022/07/15 07:22:58;;;;;;;1.40;0.57;;;16.90;99.90;;;;;;5118465;27;20037;-86
2022/07/15 07:25:24;;;;;;;3.05;0.35;;;16.80;99.90;;;;;;5119319;27;20047;-88
2022/07/15 07:27:50;;;;;;;2.38;0.65;;;16.70;99.90;;;;;;5137471;27;20039;-85
2022/07/15 07:30:17;;;;;;;7.38;0.90;;;16.60;99.90;;;;;;5118561;27;20657;-86
2022/07/15 07:32:42;;;;;;;2.65;0.47;;;16.50;99.90;;;;;;5137488;27;20558;-86
2022/07/15 07:35:08;;;;;;;3.30;0.73;;;16.30;99.90;;;;;;5137555;27;20068;-87
2022/07/15 07:37:36;;;;;;;1.50;0.40;;;16.30;99.90;;;;;;5100928;27;20375;-86
2022/07/15 07:40:03;;;;;;;3.35;0.40;;;16.50;99.90;;;;;;5137117;27;20517;-85
2022/07/15 07:42:28;;;;;;;6.32;0.50;;;16.70;99.90;;;;;;5137296;27;20126;-88
2022/07/15 07:44:55;;;;;;;1.75;0.40;;;16.90;99.90;;;;;;5119060;27;20075;-84
2022/07/15 07:47:21;;;;;;;2.22;0.50;;;17.10;99.90;;;;;;5119082;27;20047;-85
2022/07/15 07:49:48;;;;;;;3.45;0.40;;;17.20;99.90;;;;;;5118490;27;20049;-86
2022/07/15 07:52:15;;;;;;;3.90;0.85;;;17.30;99.90;;;;;;5120480;27;20103;-85
2022/07/15 07:54:41;;;;;;;0.68;0.30;;;17.30;99.90;;;;;;5120945;27;20086;-85
2022/07/15 07:57:07;;;;;;;2.53;0.40;;;17.20;99.90;;;;;;5120976;27;20058;-85
2022/07/15 07:59:33;;;;;;;6.30;0.60;;;17.10;99.90;;;;;;5119060;27;20043;-85
2022/07/15 08:01:59;;;;;;;3.15;0.52;;;17.00;99.90;;;;;;5136640;27;20043;-85
2022/07/15 08:04:25;;;;;;;3.25;0.60;;;16.90;99.90;;;;;;5136103;27;20039;-85
2022/07/15 08:06:51;;;;;;;3.38;0.50;;;16.70;99.90;;;;;;5118292;27;20039;-86
2022/07/15 08:09:17;;;;;;;3.00;0.50;;;16.60;99.90;;;;;;5136926;27;20065;-85
2022/07/15 08:11:44;;;;;;;1.85;0.30;;;16.60;99.90;;;;;;5117544;27;20043;-85
2022/07/15 08:14:10;;;;;;;1.27;0.68;;;16.50;99.90;;;;;;5136567;27;20055;-85
2022/07/15 08:16:42;;;;;;;3.22;0.47;;;16.60;99.90;;;;;;5118175;27;20104;-85
2022/07/15 08:19:08;;;;;;;4.47;0.40;;;16.80;99.90;;;;;;5135623;27;20558;-86
2022/07/15 08:21:34;;;;;;;2.67;0.30;;;17.00;99.90;;;;;;5136663;27;20046;-85
2022/07/15 08:24:00;;;;;;;3.22;0.35;;;17.30;99.90;;;;;;5136699;27;20076;-83
2022/07/15 08:26:26;;;;;;;3.63;0.28;;;17.50;99.90;;;;;;5117532;27;20112;-86
2022/07/15 08:28:52;;;;;;;8.23;0.40;;;17.70;99.90;;;;;;5118065;27;20043;-85
2022/07/15 08:31:19;;;;;;;1.95;0.47;;;17.80;99.90;;;;;;5136329;27;20050;-86
2022/07/15 08:33:45;;;;;;;0.88;0.20;;;17.80;99.90;;;;;;5117092;27;20051;-86
2022/07/15 08:36:11;;;;;;;3.22;0.32;;;17.60;99.90;;;;;;5117953;27;20121;-84
2022/07/15 08:38:37;;;;;;;3.88;0.50;;;17.60;99.90;;;;;;5117496;27;20075;-86
2022/07/15 08:41:03;;;;;;;3.25;0.60;;;17.60;99.90;;;;;;5117036;27;20043;-85
2022/07/15 08:43:29;;;;;;;1.75;0.50;;;17.80;99.90;;;;;;5135968;27;20039;-85
2022/07/15 08:45:55;;;;;;;2.22;0.30;;;17.80;99.90;;;;;;5117241;27;20054;-85
2022/07/15 08:48:28;;;;;;;4.18;0.47;;;17.80;99.90;;;;;;5117818;27;20039;-87
2022/07/15 08:50:55;;;;;;;3.60;0.40;;;17.80;99.90;;;;;;5117707;27;20079;-85
2022/07/15 08:53:21;;;;;;;1.65;0.20;;;17.80;99.90;;;;;;5116536;27;20062;-85
2022/07/15 08:55:47;;;;;;;4.60;0.47;;;17.80;99.90;;;;;;5135697;27;20521;-87
2022/07/15 08:58:13;;;;;;;2.67;0.80;;;17.80;99.90;;;;;;5135585;27;20047;-85
2022/07/15 09:00:39;;;;;;;2.55;0.40;;;17.70;99.90;;;;;;5135098;27;20061;-86
2022/07/15 09:03:05;;;;;;;1.17;0.32;;;17.60;99.90;;;;;;5117246;27;20043;-85
2022/07/15 09:05:33;;;;;;;1.60;0.30;;;17.50;99.90;;;;;;5117456;27;20046;-85
2022/07/15 09:08:06;;;;;;;1.77;0.32;;;17.40;99.90;;;;;;5116824;27;20055;-85
2022/07/15 09:10:50;;;;;;;4.18;0.82;;;17.40;99.90;;;;;;5117330;27;20047;-85
2022/07/15 09:13:27;;;;;;;1.95;0.57;;;17.50;99.90;;;;;;5135719;27;20090;-85
2022/07/15 09:15:54;;;;;;;2.05;0.32;;;17.50;99.90;;;;;;5134897;27;20086;-85
2022/07/15 09:18:23;;;;;;;4.32;0.40;;;17.50;99.90;;;;;;5135585;27;20079;-85
2022/07/15 09:20:49;;;;;;;3.22;0.50;;;17.50;99.90;;;;;;5135498;27;20039;-86
2022/07/15 09:23:20;;;;;;;2.30;0.30;;;17.40;99.90;;;;;;5134694;27;20035;-86
2022/07/15 09:25:49;;;;;;;1.15;0.30;;;17.40;99.90;;;;;;5135493;27;20051;-85
2022/07/15 09:28:15;;;;;;;2.63;0.45;;;17.40;99.90;;;;;;5135038;27;20114;-85
2022/07/15 09:33:39;;;;;;;1.48;0.30;;;17.50;99.90;;;;;;5136363;27;20134;-85
2022/07/15 09:36:11;;;;;;;2.75;0.50;;;17.60;99.90;;;;;;5116188;27;20152;-86
2022/07/15 09:38:44;;;;;;;5.03;1.00;;;17.60;99.90;;;;;;5135233;27;20107;-85
2022/07/15 09:41:36;;;;;;;1.40;0.40;;;17.50;99.90;;;;;;5135133;27;20577;-85
2022/07/15 09:44:08;;;;;;;4.30;0.28;;;17.50;99.90;;;;;;5127257;27;20050;-86
2022/07/15 09:46:43;;;;;;;2.92;0.68;;;17.50;99.90;;;;;;5117000;27;20458;-85
2022/07/15 09:49:24;;;;;;;3.35;0.57;;;17.60;99.90;;;;;;5134383;27;20119;-85
2022/07/15 09:51:50;;;;;;;2.85;0.38;;;17.80;99.90;;;;;;5135144;27;20043;-85
2022/07/15 09:54:17;;;;;;;1.55;0.30;;;18.00;99.90;;;;;;5116695;27;20374;-85
2022/07/15 09:56:45;;;;;;;2.45;0.22;;;18.00;99.90;;;;;;5116144;27;20061;-85
2022/07/15 09:59:11;;;;;;;1.42;0.17;;;18.00;99.90;;;;;;5134759;27;20122;-85
2022/07/15 10:01:37;;;;;;;1.65;0.30;;;18.10;99.90;;;;;;5116903;28;20050;-86
2022/07/15 10:04:04;;;;;;;1.90;0.90;;;18.00;99.90;;;;;;5116596;28;20055;-85
2022/07/15 10:06:32;;;;;;;2.05;0.38;;;18.00;99.90;;;;;;5135273;27;20073;-84
2022/07/15 10:08:58;;;;;;;1.45;0.43;;;18.00;99.90;;;;;;5116378;28;20049;-86
2022/07/15 10:11:24;;;;;;;1.35;0.32;;;18.10;99.90;;;;;;5134095;28;20121;-86
2022/07/15 10:14:08;;;;;;;1.00;0.30;;;18.10;99.90;;;;;;5134290;28;20059;-85
2022/07/15 10:16:37;;;;;;;3.85;0.20;;;18.10;99.90;;;;;;5116239;28;20059;-86
2022/07/15 10:19:24;;;;;;;3.90;0.35;;;18.20;99.90;;;;;;5115163;28;20070;-85
2022/07/15 10:22:23;;;;;;;4.82;1.50;;;18.30;99.90;;;;;;5134676;28;20112;-87
2022/07/15 10:25:02;;;;;;;1.65;0.45;;;18.50;99.90;;;;;;5115417;28;20453;-86
2022/07/15 10:27:36;;;;;;;2.42;0.60;;;18.70;99.90;;;;;;5116440;28;20047;-85
2022/07/15 10:30:03;;;;;;;;;;;18.80;99.90;;;;;;5134918;28;20054;-85
2022/07/15 10:32:49;;;;;;;1.38;0.40;;;19.00;99.90;;;;;;5133554;28;19920;-85
2022/07/15 10:35:46;;;;;;;1.67;0.40;;;19.10;99.90;;;;;;5134384;28;20066;-84
2022/07/15 10:38:30;;;;;;;1.15;0.45;;;19.20;99.90;;;;;;5134254;28;20043;-86
2022/07/15 10:41:05;;;;;;;3.35;0.40;;;19.20;99.90;;;;;;5134254;28;20069;-87
2022/07/15 10:43:49;;;;;;;;;;;19.20;99.90;;;;;;5134552;28;20043;-84
2022/07/15 10:46:20;;;;;;;2.17;0.50;;;19.00;99.90;;;;;;5133598;28;20015;-85
2022/07/15 10:48:52;;;;;;;1.48;0.60;;;18.80;99.90;;;;;;5115950;28;20725;-85
2022/07/15 10:51:36;;;;;;;1.70;0.40;;;18.80;99.90;;;;;;5134464;28;20371;-84
2022/07/15 10:54:10;;;;;;;2.78;0.50;;;18.70;99.90;;;;;;5114898;28;20051;-84
2022/07/15 10:56:36;;;;;;;;;;;18.60;99.90;;;;;;5134549;28;20412;-84
2022/07/15 10:59:16;;;;;;;1.67;0.43;;;18.60;99.90;;;;;;5134055;28;19919;-86
2022/07/15 11:01:46;;;;;;;3.22;0.30;;;18.60;99.90;;;;;;5114746;28;20393;-84
2022/07/15 11:04:29;;;;;;;3.50;0.35;;;18.50;99.90;;;;;;5115965;28;20047;-84
2022/07/15 11:09:50;;;;;;;1.95;0.40;;;18.50;99.90;;;;;;5115690;28;20043;-85
2022/07/15 11:12:20;;;;;;;1.23;0.32;;;18.50;99.90;;;;;;5115792;28;20169;-86
2022/07/15 11:14:56;;;;;;;3.40;0.38;;;18.60;99.90;;;;;;5115066;27;20468;-85
2022/07/15 11:17:41;;;;;;;3.15;0.30;;;18.80;99.90;;;;;;5138167;27;20057;-85
2022/07/15 11:20:13;;;;;;;2.30;0.55;;;18.90;99.90;;;;;;5137706;27;20046;-85
2022/07/15 11:22:48;;;;;;;1.67;0.30;;;18.90;99.90;;;;;;5136642;27;20397;-85
2022/07/15 11:25:21;;;;;;;;;;;19.00;99.90;;;;;;5119567;27;20043;-85
2022/07/15 11:28:00;;;;;;;1.63;0.30;;;19.00;99.90;;;;;;5136632;27;20293;-85
2022/07/15 11:30:39;;;;;;;0.60;0.40;;;18.90;99.90;;;;;;5137654;27;20051;-85
2022/07/15 11:33:09;;;;;;;0.38;0.22;;;18.90;99.90;;;;;;5119114;27;20049;-84
2022/07/15 11:35:55;;;;;;;3.50;0.50;;;19.00;99.90;;;;;;5118318;27;20378;-86
2022/07/15 11:38:27;;;;;;;1.63;0.35;;;19.10;99.90;;;;;;5137225;27;20509;-87
2022/07/15 11:46:29;;;;;;;1.08;0.40;;;18.90;99.90;;;;;;5118807;27;20112;-85
2022/07/15 11:48:55;;;;;;;1.17;0.30;;;18.80;99.90;;;;;;5118196;27;20049;-83
2022/07/15 11:51:29;;;;;;;1.48;0.20;;;18.60;99.90;;;;;;5137164;27;20039;-85
2022/07/15 11:53:57;;;;;;;2.08;0.40;;;18.60;99.90;;;;;;5136819;27;20043;-85
2022/07/15 11:56:24;;;;;;;1.65;0.50;;;18.60;99.90;;;;;;5136062;27;20043;-88
2022/07/15 11:58:52;;;;;;;1.75;0.52;;;18.60;99.90;;;;;;5118770;27;20509;-83
2022/07/15 12:01:23;;;;;;;6.15;0.63;;;18.80;99.90;;;;;;5137130;27;20045;-85
2022/07/15 12:03:52;;;;;;;3.10;0.40;;;19.10;99.90;;;;;;5136024;27;20055;-84
2022/07/15 12:06:22;;;;;;;2.97;0.55;;;19.20;99.90;;;;;;5136872;27;20397;-84
2022/07/15 12:08:54;;;;;;;4.35;0.38;;;19.40;99.90;;;;;;5118323;27;20125;-86
2022/07/15 12:11:28;;;;;;;2.10;0.40;;;19.60;99.90;;;;;;5117617;27;20059;-85
2022/07/15 12:13:58;;;;;;;2.90;0.35;;;19.70;99.90;;;;;;5136608;27;20407;-88
2022/07/15 12:16:52;;;;;;;1.95;0.52;;;19.60;99.90;;;;;;5136533;27;20118;-86
2022/07/15 12:19:25;;;;;;;2.05;0.52;;;19.50;99.90;;;;;;5134511;27;20494;-83
2022/07/15 12:21:54;;;;;;;2.55;0.60;;;19.30;99.90;;;;;;5118301;27;20051;-84
2022/07/15 12:24:22;;;;;;;1.55;0.40;;;19.20;99.90;;;;;;5135827;27;20104;-85
2022/07/15 12:26:52;;;;;;;2.60;0.40;;;19.00;99.90;;;;;;5135160;27;20504;-84
2022/07/15 12:29:23;;;;;;;2.75;0.47;;;18.90;99.90;;;;;;5118114;27;20103;-86
2022/07/15 12:31:56;;;;;;;1.35;0.35;;;18.80;99.90;;;;;;5117111;27;20478;-85
2022/07/15 12:34:43;;;;;;;3.13;0.52;;;18.70;99.90;;;;;;5136354;27;20066;-85
2022/07/15 12:37:09;;;;;;;2.08;0.32;;;18.70;99.90;;;;;;5117631;27;20043;-84
2022/07/15 12:40:00;;;;;;;1.52;0.45;;;18.70;99.90;;;;;;5117017;27;20051;-85
2022/07/15 12:42:30;;;;;;;1.27;0.45;;;18.80;99.90;;;;;;5117951;27;20104;-85
2022/07/15 12:45:20;;;;;;;4.60;0.55;;;19.00;99.90;;;;;;5135273;27;20130;-83
2022/07/15 12:48:06;;;;;;;2.70;0.60;;;19.10;99.90;;;;;;5118054;27;20051;-88
2022/07/15 12:50:46;;;;;;;2.17;0.38;;;19.20;99.90;;;;;;5117601;27;20079;-86
2022/07/15 12:53:12;;;;;;;5.75;0.60;;;19.20;99.90;;;;;;5117088;27;20046;-86
2022/07/15 12:55:43;;;;;;;1.90;0.52;;;19.20;99.90;;;;;;5117514;27;20051;-85
2022/07/15 12:58:11;;;;;;;2.60;1.00;;;19.30;99.90;;;;;;5100132;27;20494;-88
2022/07/15 13:00:38;;;;;;;2.92;0.57;;;19.30;99.90;;;;;;5134717;27;20050;-85
2022/07/15 13:03:08;;;;;;;2.67;0.75;;;19.30;99.90;;;;;;5117176;27;20050;-85
2022/07/15 13:05:40;;;;;;;2.75;0.70;;;19.30;99.90;;;;;;5135770;27;20087;-85
2022/07/15 13:08:14;;;;;;;2.33;0.60;;;19.30;99.90;;;;;;5135064;27;20058;-85